• Join FlightAware (Why Join?)
  • Login
  • US Flag 
04:11PM EST


 

Airport Tracker/Info


-or-


 

Live Flight TrackerFlight Track Log ✈ N137TK ✈ 19-Oct-2013 ✈ KAPF - KNEW

Flight Track Log - Related Links

Times and Time Zones

All times are in EDT time to prevent confusion due to time zone crossing. See the N137TK flight status page for this flight to view local times or setup timezone preferences in your user account.

Time Position Orientation Groundspeed Altitude Reporting Facility
EDT Latitude Longitude Course Direction KTS MPH feet Rate Location/Type
08:26AM 26.2214 -81.8261 303° West 175 201 5,500  Level Miami Center
08:27AM 26.2197 -81.8769 268° West 180 207 7,400 1,800 Climbing Miami Center
08:28AM 26.2178 -81.9325 268° West 180 207 9,100 1,700 Climbing Miami Center
08:29AM 26.2136 -81.9903 265° West 180 207 10,800 1,600 Climbing Miami Center
08:30AM 26.3531 -82.1643 303° West  Level Estimated
08:30AM 26.2117 -82.0456 268° West 180 207 12,300  Level Miami Center
08:31AM 26.2306 -82.1019 290° West 180 207 13,700 1,300 Climbing Miami Center
08:32AM 26.2558 -82.1564 297° West 185 213 14,900 1,250 Climbing Miami Center
08:33AM 26.2811 -82.2061 300° West 204 235 16,200 1,250 Climbing Miami Center
08:34AM 26.3083 -82.2583 300° West 198 228 17,400 1,250 Climbing Miami Center
08:35AM 26.3375 -82.3197 298° West 198 228 18,700 1,150 Climbing Miami Center
08:36AM 26.3628 -82.3697 299° West 198 228 19,700 1,050 Climbing Miami Center
08:37AM 26.3900 -82.4242 299° West 198 228 20,800 1,100 Climbing Miami Center
08:38AM 26.4150 -82.4742 299° West 198 228 21,900 1,050 Climbing Miami Center
08:39AM 26.4403 -82.5261 299° West 198 228 22,900 950 Climbing Miami Center
08:40AM 26.4675 -82.5786 300° West 198 228 23,800 850 Climbing Miami Center
08:41AM 26.4906 -82.6283 297° West 191 220 24,600 800 Climbing Miami Center
08:42AM 26.5156 -82.6783 299° West 191 220 25,400 700 Climbing Miami Center
08:43AM 26.5408 -82.7283 299° West 186 214 26,000 300 Climbing Miami Center
08:44AM 26.5678 -82.7853 298° West 202 232 26,000  Level Miami Center
08:45AM 26.6025 -82.8519 300° West 225 259 26,000  Level Miami Center
08:46AM 26.6353 -82.9189 299° West 237 273 26,000  Level Miami Center
08:47AM 26.6697 -82.9903 298° West 250 288 26,000  Level Miami Center
08:48AM 26.7064 -83.0594 301° West 257 296 26,000  Level Miami Center
08:49AM 26.7389 -83.1308 297° West 257 296 26,000  Level Miami Center
08:50AM 26.7753 -83.2025 300° West 257 296 26,000  Level Miami Center
08:51AM 26.8097 -83.2742 298° West 257 296 26,000  Level Miami Center
08:52AM 26.8442 -83.3436 299° West 257 296 26,000  Level Miami Center
08:53AM 26.8808 -83.4131 301° West 257 296 26,000  Level Miami Center
08:54AM 26.9131 -83.4825 298° West 257 296 26,000  Level Miami Center
08:55AM 26.9472 -83.5542 298° West 257 296 26,000  Level Miami Center
08:56AM 26.9817 -83.6236 299° West 257 296 26,000  Level Miami Center
08:57AM 27.0178 -83.6956 299° West 257 296 26,000  Level Miami Center
08:58AM 27.0500 -83.7650 298° West 257 296 26,000  Level Miami Center
08:59AM 27.0800 -83.8344 296° West 257 296 26,000  Level Miami Center
09:00AM 27.1164 -83.9042 298° West 257 296 26,000  Level Miami Center
09:01AM 27.1272 -83.9307 299° West  Level FlightAware Approximate
09:08AM 27.3516 -84.3915 299° West  Level FlightAware Approximate
09:09AM 27.3836 -84.4575 299° West  Level FlightAware Approximate
09:09AM 27.4197 -84.5394 300° West 252 290 26,000  Level Miami Center
09:10AM 27.4155 -84.5235 299° West  Level FlightAware Approximate
09:10AM 27.4308 -84.5206 300° West  Level Estimated
09:11AM 27.4474 -84.5895 299° West  Level FlightAware Approximate
09:11AM 27.4969 -84.6936 299° West 253 291 26,000  Level Jacksonville Center
09:12AM 27.4792 -84.6556 299° West  Level FlightAware Approximate
09:13AM 27.5110 -84.7217 298° West  Level FlightAware Approximate
09:13AM 27.5341 -84.7707 299° West  Level FlightAware Approximate
09:16AM 27.6647 -85.0478 298° West 259 298 26,000  Level Jacksonville Center
09:17AM 27.6615 -84.9786 300° West  Level Estimated
09:17AM 27.6989 -85.1236 297° West 259 298 26,000  Level Jacksonville Center
09:18AM 27.7308 -85.2017 295° West 265 305 26,000  Level Jacksonville Center
09:19AM 27.7650 -85.2706 299° West 252 290 26,000  Level Jacksonville Center
09:20AM 27.7554 -85.2348 298° West  Level FlightAware Approximate
09:20AM 27.7972 -85.3369 299° West 257 296 26,000  Level Jacksonville Center
09:21AM 27.7866 -85.3015 298° West  Level FlightAware Approximate
09:21AM 27.8333 -85.4106 299° West 257 296 26,000  Level Jacksonville Center
09:22AM 27.8178 -85.3682 298° West  Level FlightAware Approximate
09:22AM 27.8675 -85.4747 301° West 258 297 26,000  Level Jacksonville Center
09:23AM 27.8992 -85.5600 293° West 263 303 26,000  Level Jacksonville Center
09:24AM 27.9331 -85.6314 298° West 257 296 26,000  Level Jacksonville Center
09:25AM 27.9650 -85.6981 298° West 257 296 26,000  Level Jacksonville Center
09:26AM 27.9989 -85.7717 298° West 257 296 26,000  Level Jacksonville Center
09:27AM 28.0306 -85.8386 298° West 257 296 26,000  Level Jacksonville Center
09:28AM 28.0644 -85.9125 297° West 263 303 26,000  Level Jacksonville Center
09:29AM 28.0961 -85.9839 297° West 257 296 26,000  Level Jacksonville Center
09:30AM 28.1281 -86.0483 299° West 252 290 26,000  Level Jacksonville Center
09:31AM 28.1614 -86.1247 296° West 252 290 26,000  Level Jacksonville Center
09:32AM 28.1953 -86.1942 299° West 257 296 26,000  Level Jacksonville Center
09:33AM 28.2247 -86.2611 297° West 251 289 26,000  Level Jacksonville Center
09:34AM 28.2583 -86.3328 298° West 251 289 26,000  Level Jacksonville Center
09:35AM 28.2897 -86.4022 297° West 246 283 26,000  Level Jacksonville Center
09:36AM 28.3233 -86.4767 297° West 246 283 26,000  Level Jacksonville Center
09:37AM 28.3547 -86.5436 298° West 253 291 26,000  Level Jacksonville Center
09:38AM 28.3861 -86.6156 296° West 248 285 26,000  Level Jacksonville Center
09:39AM 28.4153 -86.6828 296° West 249 287 26,000  Level Jacksonville Center
09:40AM 28.4467 -86.7547 296° West 243 280 26,000  Level Jacksonville Center
09:41AM 28.4781 -86.8219 298° West 249 287 26,000  Level Jacksonville Center
09:42AM 28.5111 -86.8942 298° West 243 280 26,000  Level Jacksonville Center
09:43AM 28.5403 -86.9614 296° West 248 285 26,000  Level Jacksonville Center
09:44AM 28.5736 -87.0336 298° West 254 292 26,000  Level Jacksonville Center
09:45AM 28.5986 -87.0939 295° West 236 272 26,000  Level Jacksonville Center
09:46AM 28.6339 -87.1686 298° West 246 283 26,000  Level Jacksonville Center
09:47AM 28.6628 -87.2386 295° West 254 292 26,000  Level Jacksonville Center
09:48AM 28.6958 -87.3061 299° West 248 285 26,000  Level Jacksonville Center
09:49AM 28.7267 -87.3786 296° West 248 285 26,000  Level Jacksonville Center
09:51AM 28.7572 -87.4478 297° West 250 288 26,000  Level Houston Center
09:52AM 28.7875 -87.5178 296° West 248 285 26,000  Level Houston Center
09:53AM 28.8181 -87.5864 297° West 245 282 26,000  Level Houston Center
09:54AM 28.8553 -87.6694 297° West 245 282 26,000  Level Houston Center
09:55AM 28.8844 -87.7381 296° West 242 278 26,000  Level Houston Center
09:56AM 28.9156 -87.8083 297° West 245 282 26,000  Level Houston Center
09:57AM 28.9456 -87.8775 296° West 243 280 26,000  Level Houston Center
09:58AM 28.9775 -87.9486 297° West 248 285 26,000  Level Houston Center
09:59AM 29.0072 -88.0167 297° West 244 281 26,000  Level Houston Center
10:00AM 29.0394 -88.0889 297° West 243 280 26,000  Level Houston Center
10:01AM 29.0681 -88.1575 296° West 241 277 26,000  Level Houston Center
10:02AM 29.0969 -88.2250 296° West 238 274 26,000  Level Houston Center
10:03AM 29.1275 -88.2939 297° West 241 277 26,000  Level Houston Center
10:04AM 29.1589 -88.3608 298° West 240 276 26,000 -49 Level Houston Center
10:05AM 29.2333 -88.3919 340° North 278 320 25,900 -639 Descending Houston Center
10:06AM 29.3281 -88.4289 341° North 295 339 24,700 -1,073 Descending Houston Center
10:07AM 29.4100 -88.4622 340° North 307 353 23,700 -976 Descending Houston Center
10:08AM 29.4922 -88.4967 340° North 313 360 22,700 -984 Descending Houston Center
10:09AM 29.5714 -88.5325 339° North 309 356 21,700 -976 Descending Houston Center
10:10AM 29.6506 -88.5697 338° Northwest 310 357 20,700 -976 Descending Houston Center
10:11AM 29.7286 -88.6072 337° Northwest 306 352 19,700 -984 Descending Houston Center
10:12AM 29.8000 -88.6569 329° Northwest 303 349 18,700 -976 Descending Houston Center
10:13AM 29.8636 -88.7011 329° Northwest 276 318 17,700 -927 Descending Houston Center
10:14AM 29.9247 -88.7433 329° Northwest 262 302 16,800 -1,024 Descending Houston Center
10:15AM 29.9967 -88.7908 330° Northwest 252 290 15,600 -1,073 Descending Houston Center
10:16AM 30.0553 -88.8286 331° Northwest 245 282 14,600 -976 Descending Houston Center
10:17AM 30.1136 -88.8678 330° Northwest 245 282 13,600 -976 Descending Houston Center
10:18AM 30.1717 -88.9067 330° Northwest 243 280 12,600 -984 Descending Houston Center
10:19AM 30.2272 -88.9492 327° Northwest 237 273 11,600 -780 Descending Houston Center
10:20AM 30.2281 -89.0111 271° West 206 237 11,000 -293 Descending Houston Center
10:21AM 30.2242 -89.0728 266° West 195 224 11,000  Level Houston Center
10:22AM 30.2400 -89.1456 284° West 194 223 11,000 -439 Level Houston Center
10:23AM 30.2489 -89.2097 279° West 200 230 10,100 -833 Descending Houston Center
10:23AM 30.2481 -89.2247 266° West 210 242 10,000 -871 Descending Houston Center
10:24AM 30.2469 -89.2803 269° West 213 245 9,200 -989 Descending Houston Center
10:25AM 30.2458 -89.3356 269° West 234 269 8,500 -1,082 Descending Houston Center
10:25AM 30.2456 -89.3550 269° West 227 261 8,100 -448 Descending Houston Center
10:26AM 30.2447 -89.4128 269° West 221 254 8,000 -97 Descending Houston Center
10:26AM 30.2453 -89.4244 273° West 221 254 8,000  Level Houston Center
10:27AM 30.2469 -89.4728 272° West 204 235 8,000  Level Houston Center
10:27AM 30.2456 -89.4908 265° West 210 242 8,000  Level Houston Center
10:28AM 30.2472 -89.5425 272° West 211 243 8,000 -194 Level Houston Center
10:28AM 30.2456 -89.5589 263° West 211 243 7,800 -980 Descending Houston Center
10:29AM 30.2322 -89.5939 246° West 209 241 7,200 -1,180 Descending Houston Center
10:29AM 30.2231 -89.6197 248° West 207 238 6,600 -1,000 Descending Houston Center
10:30AM 30.2094 -89.6550 246° West 208 239 6,200 -871 Descending Houston Center
10:30AM 30.2003 -89.6836 250° West 209 241 5,700 -1,180 Descending Houston Center
10:31AM 30.1864 -89.7186 245° Southwest 215 247 5,000 -1,574 Descending Houston Center
10:31AM 30.1722 -89.7481 241° Southwest 218 251 4,100 -1,522 Descending Houston Center
10:32AM 30.1492 -89.7853 234° Southwest 235 270 3,300 -1,180 Descending Houston Center
10:32AM 30.1353 -89.8094 236° Southwest 226 260 2,900 -273 Descending Houston Center
10:33AM 30.1094 -89.8519 235° Southwest 219 252 3,000  Climbing Houston Center
10:33AM 30.0950 -89.8772 237° Southwest 219 252 2,900  Descending Houston Center
10:34AM 30.0631 -89.8972 208° Southwest 229 264 3,000  Climbing Houston Center
10:34AM 30.0372 -89.9056 196° South 231 266 2,900  Descending Houston Center
10:35AM 29.9969 -89.9194 197° South 233 268 3,000  Climbing Houston Center
10:36AM 29.9758 -89.9289 201° Southwest 229 264 2,900  Descending Houston Center
10:36AM 29.9408 -89.9361 190° South 232 267 3,000  Climbing Houston Center
10:37AM 29.9119 -89.9372 182° South 236 272 2,900  Descending Houston Center
10:37AM 29.8617 -89.9372 180° South 226 260 3,000  Climbing Houston Center
10:38AM 29.8511 -89.9411 198° South 228 262 2,900  Descending Houston Center
10:38AM 29.8464 -89.9858 263° West 175 201 3,000  Climbing Houston Center
10:39AM 29.8517 -89.9944 305° West 193 222 2,900  Descending Houston Center
10:39AM 29.8681 -90.0064 328° Northwest 143 165 3,000  Climbing Houston Center
10:40AM 29.8850 -90.0178 330° Northwest 157 181 2,900  Descending Houston Center
10:40AM 29.9000 -90.0267 333° Northwest 135 155 3,000 -590 Climbing Houston Center
10:41AM 29.9242 -90.0283 357° North 154 177 2,300 -1,059 Descending Houston Center
10:41AM 29.9628 -90.0289 359° North 166 191 1,500 -1,180 Descending Houston Center
10:42AM 29.9769 -90.0286 North 158 182 1,100 -655 Descending Houston Center
10:42AM 29.9961 -90.0297 357° North 136 157 900 -581 Descending Houston Center
10:43AM 30.0125 -90.0297 360° North 144 166 500 -556 Descending Houston Center
10:43AM 30.0233 -90.0311 354° North 104 120 400 -197 Descending Houston Center
10:44AM 30.0397 -90.0319 357° North 133 153 300 -171 Descending Houston Center